White Plains, Maryland
Current Conditions -  °F | °C
As of 8:58 PM on Saturday 22 Nov 2014 (Local Time) from KDAA Reporting Station
Broken Clouds Broken Clouds  
Wind Chill: 34°   Ceiling: 11000
Heat Index: 34°   Visibility: 10mi
Dew Point: 22°   Wind: 3mph
Humidity: 61%   Direction: NA
Pressure: 30.29"   Gusts: NA
Location:  38.59°N, 76.98°W
Report Text: KDAA 230158Z AUTO VRB03KT 10SM BKN110 01/M06 A3029 RMK AO2 SLP261 T00091058
Loading
Personal Weather Stations






























Interactive Weather Map New forecast layout! Learn more

10-Day Weather Forecast

Advertisements
Track Severe Weather on mobile